createdAt,value
2022-09-22T00:01:06.602Z,2.67
2022-09-22T00:03:36.402Z,2.50
2022-09-22T00:06:13.434Z,2.03
2022-09-22T00:08:43.448Z,2.58
2022-09-22T00:11:18.766Z,2.70
2022-09-22T00:13:52.399Z,2.40
2022-09-22T00:16:25.372Z,2.85
2022-09-22T00:18:52.481Z,2.10
2022-09-22T00:21:21.464Z,2.15
2022-09-22T00:23:49.075Z,2.42
2022-09-22T00:26:19.516Z,1.90
2022-09-22T00:28:47.848Z,1.30
2022-09-22T00:31:17.708Z,1.80
2022-09-22T00:33:46.405Z,1.45
2022-09-22T00:36:15.128Z,1.48
2022-09-22T00:38:42.660Z,1.45
2022-09-22T00:41:20.509Z,1.73
2022-09-22T00:43:50.456Z,1.30
2022-09-22T00:46:28.725Z,1.55
2022-09-22T00:49:00.938Z,1.88
2022-09-22T00:51:32.622Z,1.65
2022-09-22T00:54:03.992Z,1.67
2022-09-22T00:56:38.221Z,1.80
2022-09-22T00:59:09.652Z,1.65
2022-09-22T01:01:40.462Z,2.08
2022-09-22T01:04:08.039Z,2.88
2022-09-22T01:06:39.157Z,2.40
2022-09-22T01:09:07.901Z,2.08
2022-09-22T01:11:37.107Z,2.40
2022-09-22T01:14:31.807Z,2.15
2022-09-22T01:17:25.440Z,1.85
2022-09-22T01:20:17.080Z,2.08
2022-09-22T01:22:49.968Z,1.52
2022-09-22T01:25:48.664Z,1.90
2022-09-22T01:28:40.671Z,1.52
2022-09-22T01:31:17.372Z,1.55
2022-09-22T01:33:52.125Z,1.52
2022-09-22T01:36:35.684Z,1.63
2022-09-22T01:39:19.128Z,1.70
2022-09-22T01:41:48.841Z,1.52
2022-09-22T01:44:31.536Z,2.10
2022-09-22T01:47:23.687Z,1.60
2022-09-22T01:50:00.789Z,1.73
2022-09-22T01:52:31.124Z,1.48
2022-09-22T01:55:05.351Z,1.45
2022-09-22T01:57:47.161Z,1.83
2022-09-22T02:00:14.158Z,1.52
2022-09-22T02:02:50.601Z,1.65
2022-09-22T02:05:26.203Z,1.40
2022-09-22T02:07:55.074Z,1.42
2022-09-22T02:10:27.988Z,1.67
2022-09-22T02:12:55.475Z,1.58
2022-09-22T02:15:41.270Z,1.63
2022-09-22T02:18:18.111Z,1.58
2022-09-22T02:20:45.432Z,1.52
2022-09-22T02:23:13.128Z,1.60
2022-09-22T02:25:41.671Z,2.10
2022-09-22T02:28:10.190Z,1.75
2022-09-22T02:30:37.067Z,1.55
2022-09-22T02:33:06.384Z,1.33
2022-09-22T02:35:37.363Z,1.75
2022-09-22T02:38:23.704Z,2.17
2022-09-22T02:41:15.472Z,1.70
2022-09-22T02:43:49.583Z,1.52
2022-09-22T02:46:43.604Z,1.70
2022-09-22T02:49:15.837Z,1.55
2022-09-22T02:51:42.926Z,1.50
2022-09-22T02:54:09.768Z,1.33
2022-09-22T02:56:36.531Z,1.50
2022-09-22T02:59:03.620Z,1.83
2022-09-22T03:01:33.623Z,1.80
2022-09-22T03:04:01.121Z,2.25
2022-09-22T03:06:28.102Z,1.35
2022-09-22T03:08:54.985Z,1.75
2022-09-22T03:11:21.797Z,1.95
2022-09-22T03:13:49.891Z,1.83
2022-09-22T03:16:17.210Z,1.38
2022-09-22T03:18:44.145Z,1.60
2022-09-22T03:21:11.316Z,2.05
2022-09-22T03:23:38.304Z,1.70
2022-09-22T03:26:05.239Z,1.42
2022-09-22T03:28:32.077Z,1.90
2022-09-22T03:30:58.883Z,1.52
2022-09-22T03:33:26.006Z,1.42
2022-09-22T03:35:52.784Z,1.63
2022-09-22T03:38:19.706Z,1.52
2022-09-22T03:40:50.993Z,1.55
2022-09-22T03:43:19.692Z,1.70
2022-09-22T03:45:46.905Z,1.80
2022-09-22T03:48:13.782Z,1.65
2022-09-22T03:50:40.776Z,1.27
2022-09-22T03:53:07.584Z,1.42
2022-09-22T03:55:35.275Z,1.40
2022-09-22T03:58:02.426Z,1.80
2022-09-22T04:00:30.137Z,1.42
2022-09-22T04:02:58.521Z,1.58
2022-09-22T04:05:26.793Z,1.60
2022-09-22T04:07:53.850Z,1.65
2022-09-22T04:10:21.340Z,1.38
2022-09-22T04:12:48.232Z,1.73
2022-09-22T04:15:15.416Z,1.58
2022-09-22T04:17:42.327Z,1.52
2022-09-22T04:20:11.879Z,1.35
2022-09-22T04:22:38.908Z,1.77
2022-09-22T04:25:07.584Z,1.58
2022-09-22T04:27:34.714Z,1.77
2022-09-22T04:30:01.641Z,1.30
2022-09-22T04:32:28.855Z,1.60
2022-09-22T04:34:55.700Z,1.65
2022-09-22T04:37:22.479Z,1.67
2022-09-22T04:39:49.537Z,2.10
2022-09-22T04:42:16.299Z,2.00
2022-09-22T04:44:43.207Z,1.58
2022-09-22T04:47:10.627Z,1.58
2022-09-22T04:49:37.488Z,2.25
2022-09-22T04:52:04.836Z,1.70
2022-09-22T04:54:31.749Z,1.95
2022-09-22T04:56:58.653Z,2.58
2022-09-22T04:59:25.781Z,2.20
2022-09-22T05:01:53.086Z,2.15
2022-09-22T05:04:20.424Z,1.70
2022-09-22T05:06:47.213Z,1.73
2022-09-22T05:09:14.486Z,1.80
2022-09-22T05:11:41.350Z,1.73
2022-09-22T05:14:08.145Z,2.00
2022-09-22T05:16:35.246Z,1.95
2022-09-22T05:19:02.145Z,1.92
2022-09-22T05:21:30.043Z,1.85
2022-09-22T05:23:57.172Z,2.03
2022-09-22T05:26:24.678Z,1.77
2022-09-22T05:28:51.654Z,1.83
2022-09-22T05:31:18.963Z,1.80
2022-09-22T05:33:46.041Z,1.95
2022-09-22T05:36:12.961Z,2.00
2022-09-22T05:38:40.092Z,2.10
2022-09-22T05:41:06.912Z,2.72
2022-09-22T05:43:33.734Z,1.85
2022-09-22T05:46:01.570Z,2.00
2022-09-22T05:48:31.433Z,2.13
2022-09-22T05:50:58.911Z,1.90
2022-09-22T05:53:26.364Z,2.33
2022-09-22T05:55:53.254Z,1.90
2022-09-22T05:58:20.585Z,1.92
2022-09-22T06:00:47.472Z,1.63
2022-09-22T06:03:14.492Z,2.10
2022-09-22T06:05:41.854Z,2.05
2022-09-22T06:08:08.720Z,1.92
2022-09-22T06:10:37.950Z,2.17
2022-09-22T06:13:09.075Z,2.25
2022-09-22T06:15:36.705Z,2.40
2022-09-22T06:18:07.325Z,2.35
2022-09-22T06:20:37.984Z,2.13
2022-09-22T06:25:31.565Z,1.77
2022-09-22T06:28:00.401Z,1.77
2022-09-22T06:30:27.380Z,1.77
2022-09-22T06:32:55.448Z,1.60
2022-09-22T06:35:22.724Z,1.83
2022-09-22T06:37:59.236Z,2.00
2022-09-22T06:40:26.818Z,2.17
2022-09-22T06:43:02.059Z,1.75
2022-09-22T06:45:29.437Z,1.88
2022-09-22T06:48:07.531Z,1.80
2022-09-22T06:50:36.872Z,2.10
2022-09-22T06:53:07.280Z,1.92
2022-09-22T06:58:02.960Z,1.95
2022-09-22T07:00:33.202Z,2.22
2022-09-22T07:03:08.853Z,1.95
2022-09-22T07:05:37.264Z,2.08
2022-09-22T07:08:05.446Z,2.05
2022-09-22T07:10:37.789Z,1.83
2022-09-22T07:13:10.697Z,2.10
2022-09-22T07:15:37.494Z,2.05
2022-09-22T07:18:04.586Z,1.98
2022-09-22T07:20:33.651Z,2.10
2022-09-22T07:23:00.855Z,2.20
2022-09-22T07:25:29.034Z,2.03
2022-09-22T07:28:05.221Z,2.28
2022-09-22T07:30:36.308Z,1.98
2022-09-22T07:35:30.372Z,1.45
2022-09-22T07:37:59.423Z,2.13
2022-09-22T07:40:26.562Z,1.70
2022-09-22T07:42:53.427Z,1.70
2022-09-22T07:45:21.944Z,1.88
2022-09-22T07:48:07.947Z,2.47
2022-09-22T07:50:34.806Z,1.95
2022-09-22T07:53:01.690Z,1.80
2022-09-22T07:55:28.780Z,1.95
2022-09-22T07:57:58.153Z,1.95
2022-09-22T08:00:27.704Z,1.88
2022-09-22T08:02:57.772Z,2.30
2022-09-22T08:05:27.465Z,1.83
2022-09-22T08:07:58.166Z,1.33
2022-09-22T08:10:26.282Z,2.08
2022-09-22T08:12:54.658Z,1.30
2022-09-22T08:15:26.673Z,1.33
2022-09-22T08:18:02.260Z,1.30
2022-09-22T08:20:30.121Z,1.63
2022-09-22T08:23:01.406Z,1.40
2022-09-22T08:25:28.831Z,1.67
2022-09-22T08:27:56.616Z,1.42
2022-09-22T08:30:23.436Z,1.77
2022-09-22T08:32:50.266Z,1.55
2022-09-22T08:35:17.491Z,1.40
2022-09-22T08:37:45.632Z,1.35
2022-09-22T08:40:23.918Z,1.42
2022-09-22T08:42:54.348Z,1.40
2022-09-22T08:45:28.731Z,1.35
2022-09-22T08:48:35.343Z,1.42
2022-09-22T08:51:29.012Z,1.15
2022-09-22T08:54:00.932Z,1.20
2022-09-22T08:56:43.274Z,1.17
2022-09-22T08:59:23.383Z,1.20
2022-09-22T09:02:22.794Z,1.90
2022-09-22T09:05:16.276Z,1.00
2022-09-22T09:07:58.063Z,1.45
2022-09-22T09:13:20.236Z,1.15
2022-09-22T09:16:27.535Z,1.02
2022-09-22T09:19:22.432Z,0.98
2022-09-22T09:21:55.160Z,1.23
2022-09-22T09:27:28.143Z,1.13
2022-09-22T09:30:12.042Z,1.02
2022-09-22T09:32:48.214Z,1.17
2022-09-22T09:35:18.931Z,1.70
2022-09-22T09:37:48.919Z,1.60
2022-09-22T09:40:19.480Z,1.95
2022-09-22T09:42:52.090Z,1.73
2022-09-22T09:45:26.078Z,1.70
2022-09-22T09:48:11.339Z,1.77
2022-09-22T09:50:39.670Z,1.52
2022-09-22T09:53:14.116Z,1.80
2022-09-22T09:55:41.007Z,1.92
2022-09-22T09:58:36.198Z,1.70
2022-09-22T10:01:04.400Z,1.90
2022-09-22T10:03:36.533Z,1.70
2022-09-22T10:06:10.178Z,1.48
2022-09-22T10:08:46.862Z,1.63
2022-09-22T10:11:15.207Z,1.80
2022-09-22T10:13:43.820Z,1.60
2022-09-22T10:16:28.861Z,1.75
2022-09-22T10:18:58.412Z,1.48
2022-09-22T10:21:26.829Z,1.83
2022-09-22T10:23:56.940Z,1.60
2022-09-22T10:26:27.267Z,1.67
2022-09-22T10:29:12.741Z,1.80
2022-09-22T10:31:41.745Z,1.50
2022-09-22T10:34:32.223Z,1.60
2022-09-22T10:37:03.668Z,1.90
2022-09-22T10:39:44.932Z,1.70
2022-09-22T10:42:25.857Z,1.65
2022-09-22T10:44:54.177Z,1.60
2022-09-22T10:47:33.030Z,1.50
2022-09-22T10:50:09.577Z,1.70
2022-09-22T10:52:50.068Z,1.42
2022-09-22T10:55:29.165Z,1.58
2022-09-22T10:58:04.781Z,1.70
2022-09-22T11:00:38.280Z,1.60
2022-09-22T11:03:28.130Z,1.70
2022-09-22T11:06:42.898Z,1.80
2022-09-22T11:09:50.166Z,1.50
2022-09-22T11:12:38.684Z,1.70
2022-09-22T11:15:33.278Z,1.73
2022-09-22T11:18:19.167Z,1.65
2022-09-22T11:21:02.360Z,1.90
2022-09-22T11:23:29.268Z,1.83
2022-09-22T11:26:01.949Z,1.55
2022-09-22T11:28:34.961Z,1.70
2022-09-22T11:31:02.068Z,1.70
2022-09-22T11:33:37.665Z,1.60
2022-09-22T11:36:18.392Z,1.90
2022-09-22T11:39:12.121Z,1.80
2022-09-22T11:41:44.009Z,1.73
2022-09-22T11:44:25.811Z,2.00
2022-09-22T11:47:10.410Z,1.50
2022-09-22T11:49:55.500Z,1.63
2022-09-22T11:52:58.437Z,1.80
2022-09-22T11:55:55.146Z,1.48
2022-09-22T11:58:26.783Z,1.95
2022-09-22T12:01:07.469Z,1.60
2022-09-22T12:03:44.920Z,1.70
2022-09-22T12:06:16.430Z,1.88
2022-09-22T12:09:31.615Z,1.85
2022-09-22T12:12:04.256Z,1.80
2022-09-22T12:14:32.194Z,1.92
2022-09-22T12:17:02.410Z,1.90
2022-09-22T12:19:38.745Z,2.10
2022-09-22T12:22:29.558Z,1.88
2022-09-22T12:24:56.465Z,2.10
2022-09-22T12:27:26.262Z,1.90
2022-09-22T12:30:07.793Z,1.90
2022-09-22T12:32:42.967Z,1.90
2022-09-22T12:35:31.310Z,1.80
2022-09-22T12:38:02.173Z,1.98
2022-09-22T12:40:41.529Z,1.98
2022-09-22T12:43:16.766Z,1.90
2022-09-22T12:45:43.813Z,2.03
2022-09-22T12:48:14.792Z,2.30
2022-09-22T12:50:43.703Z,1.90
2022-09-22T12:53:23.456Z,1.70
2022-09-22T12:55:55.621Z,1.90
2022-09-22T12:58:26.184Z,1.80
2022-09-22T13:00:56.285Z,1.90
2022-09-22T13:03:26.042Z,2.17
2022-09-22T13:05:59.866Z,1.83
2022-09-22T13:08:32.616Z,1.90
2022-09-22T13:11:04.484Z,1.88
2022-09-22T13:13:31.803Z,2.20
2022-09-22T13:16:01.630Z,2.10
2022-09-22T13:18:34.946Z,1.95
2022-09-22T13:21:13.743Z,2.43
2022-09-22T13:23:58.908Z,2.37
2022-09-22T13:26:34.528Z,2.80
2022-09-22T13:29:15.531Z,2.63
2022-09-22T13:31:54.387Z,2.58
2022-09-22T13:34:31.750Z,3.20
2022-09-22T13:37:04.744Z,3.20
2022-09-22T13:39:35.409Z,2.90
2022-09-22T13:42:22.355Z,3.20
2022-09-22T13:45:00.523Z,3.42
2022-09-22T13:47:28.068Z,3.03
2022-09-22T13:50:06.090Z,3.50
2022-09-22T13:52:36.308Z,2.90
2022-09-22T13:55:19.943Z,3.13
2022-09-22T13:57:48.231Z,3.28
2022-09-22T14:00:25.046Z,3.53
2022-09-22T14:02:53.259Z,3.50
2022-09-22T14:05:25.145Z,3.03
2022-09-22T14:08:11.241Z,3.30
2022-09-22T14:10:42.261Z,3.20
2022-09-22T14:13:37.294Z,2.80
2022-09-22T14:16:30.374Z,3.13
2022-09-22T14:19:17.655Z,2.88
2022-09-22T14:21:57.372Z,2.38
2022-09-22T14:24:27.356Z,2.60
2022-09-22T14:27:01.612Z,2.20
2022-09-22T14:29:37.058Z,2.30
2022-09-22T14:32:26.366Z,2.38
2022-09-22T14:34:58.422Z,2.38
2022-09-22T14:37:32.283Z,2.00
2022-09-22T14:40:04.814Z,2.30
2022-09-22T14:42:33.665Z,2.00
2022-09-22T14:45:09.583Z,2.40
2022-09-22T14:47:40.521Z,2.17
2022-09-22T14:50:12.446Z,2.33
2022-09-22T14:52:48.765Z,2.33
2022-09-22T14:55:34.514Z,1.90
2022-09-22T14:58:07.491Z,1.87
2022-09-22T15:00:54.094Z,2.13
2022-09-22T15:03:29.597Z,1.85
2022-09-22T15:06:06.909Z,2.15
2022-09-22T15:08:34.128Z,2.40
2022-09-22T15:11:03.444Z,2.15
2022-09-22T15:13:45.288Z,2.13
2022-09-22T15:16:38.912Z,1.80
2022-09-22T15:19:09.916Z,2.07
2022-09-22T15:21:46.014Z,1.90
2022-09-22T15:24:18.111Z,2.15
2022-09-22T15:26:44.875Z,1.90
2022-09-22T15:29:13.309Z,1.70
2022-09-22T15:31:40.184Z,1.98
2022-09-22T15:34:07.496Z,2.00
2022-09-22T15:36:40.225Z,1.90
2022-09-22T15:39:16.369Z,1.70
2022-09-22T15:41:43.257Z,1.77
2022-09-22T15:44:10.271Z,2.08
2022-09-22T15:46:38.176Z,1.90
2022-09-22T15:49:18.148Z,1.80
2022-09-22T15:51:44.917Z,1.70
2022-09-22T15:54:20.090Z,1.80
2022-09-22T15:56:49.177Z,2.03
2022-09-22T15:59:22.998Z,1.75
2022-09-22T16:01:51.902Z,1.63
2022-09-22T16:04:20.070Z,2.00
2022-09-22T16:06:54.249Z,1.80
2022-09-22T16:09:21.175Z,1.75
2022-09-22T16:11:48.472Z,2.05
2022-09-22T16:14:15.374Z,1.60
2022-09-22T16:16:42.949Z,1.70
2022-09-22T16:19:10.524Z,1.80
2022-09-22T16:21:41.206Z,1.85
2022-09-22T16:24:10.805Z,1.80
2022-09-22T16:26:39.807Z,1.80
2022-09-22T16:29:08.382Z,1.95
2022-09-22T16:31:37.015Z,1.90
2022-09-22T16:34:05.758Z,1.58
2022-09-22T16:36:36.471Z,1.80
2022-09-22T16:39:04.406Z,2.00
2022-09-22T16:41:36.772Z,1.70
2022-09-22T16:44:04.684Z,1.63
2022-09-22T16:46:37.979Z,1.70
2022-09-22T16:49:08.367Z,2.05
2022-09-22T16:51:37.881Z,1.85
2022-09-22T16:54:07.096Z,2.03
2022-09-22T16:56:36.380Z,1.55
2022-09-22T16:59:04.559Z,1.80
2022-09-22T17:01:36.438Z,1.88
2022-09-22T17:04:06.325Z,1.88
2022-09-22T17:06:35.193Z,1.83
2022-09-22T17:09:02.373Z,1.80
2022-09-22T17:11:34.529Z,1.90
2022-09-22T17:14:04.646Z,2.22
2022-09-22T17:16:35.483Z,2.00
2022-09-22T17:19:09.122Z,1.90
2022-09-22T17:21:37.945Z,1.83
2022-09-22T17:24:06.974Z,1.70
2022-09-22T17:26:36.144Z,1.90
2022-09-22T17:29:06.439Z,1.30
2022-09-22T17:31:35.946Z,1.27
2022-09-22T17:34:03.570Z,1.45
2022-09-22T17:36:30.409Z,1.30
2022-09-22T17:39:00.151Z,1.50
2022-09-22T17:43:57.607Z,1.30
2022-09-22T17:46:26.107Z,1.20
2022-09-22T17:49:11.295Z,1.45
2022-09-22T17:51:58.173Z,1.60
2022-09-22T17:54:46.012Z,2.10
2022-09-22T17:57:20.960Z,1.80
2022-09-22T17:59:48.470Z,1.42
2022-09-22T18:02:17.229Z,1.63
2022-09-22T18:04:45.904Z,1.38
2022-09-22T18:07:17.914Z,1.10
2022-09-22T18:09:50.025Z,1.23
2022-09-22T18:12:21.569Z,1.60
2022-09-22T18:14:50.267Z,1.38
2022-09-22T18:17:20.358Z,1.20
2022-09-22T18:19:47.364Z,1.40
2022-09-22T18:22:17.795Z,1.13
2022-09-22T18:24:45.318Z,1.25
2022-09-22T18:27:13.317Z,1.17
2022-09-22T18:29:40.227Z,1.33
2022-09-22T18:32:07.217Z,1.42
2022-09-22T18:34:34.238Z,1.25
2022-09-22T18:37:03.604Z,1.20
2022-09-22T18:39:34.149Z,0.95
2022-09-22T18:42:01.471Z,1.45
2022-09-22T18:44:29.204Z,1.30
2022-09-22T18:46:56.995Z,1.50
2022-09-22T18:49:24.084Z,1.20
2022-09-22T18:51:51.550Z,1.40
2022-09-22T18:54:20.625Z,1.60
2022-09-22T18:56:49.021Z,1.63
2022-09-22T18:59:22.062Z,1.75
2022-09-22T19:01:51.825Z,1.60
2022-09-22T19:04:24.369Z,1.80
2022-09-22T19:07:11.933Z,1.65
2022-09-22T19:09:39.128Z,2.08
2022-09-22T19:12:07.892Z,2.30
2022-09-22T19:14:38.955Z,2.53
2022-09-22T19:17:10.667Z,2.50
2022-09-22T19:19:42.255Z,2.53
2022-09-22T19:22:11.089Z,2.20
2022-09-22T19:24:39.471Z,2.42
2022-09-22T19:27:08.591Z,2.70
2022-09-22T19:29:35.752Z,2.70
2022-09-22T19:32:04.324Z,3.25
2022-09-22T19:34:32.162Z,3.50
2022-09-22T19:36:59.257Z,3.30
2022-09-22T19:39:27.062Z,2.80
2022-09-22T19:41:54.887Z,2.88
2022-09-22T19:44:23.460Z,2.72
2022-09-22T19:46:50.444Z,3.53
2022-09-22T19:49:18.122Z,2.85
2022-09-22T19:51:45.304Z,2.85
2022-09-22T19:54:13.783Z,3.22
2022-09-22T19:56:40.622Z,3.15
2022-09-22T19:59:07.485Z,2.83
2022-09-22T20:01:37.900Z,3.35
2022-09-22T20:04:05.782Z,2.67
2022-09-22T20:06:33.316Z,2.58
2022-09-22T20:09:04.277Z,3.17
2022-09-22T20:11:40.594Z,3.08
2022-09-22T20:14:31.331Z,2.45
2022-09-22T20:17:06.873Z,2.83
2022-09-22T20:19:38.374Z,2.35
2022-09-22T20:22:17.520Z,2.10
2022-09-22T20:24:53.829Z,2.17
2022-09-22T20:27:29.209Z,2.05
2022-09-22T20:29:57.674Z,2.38
2022-09-22T20:32:26.541Z,1.63
2022-09-22T20:34:54.868Z,2.03
2022-09-22T20:37:24.443Z,1.77
2022-09-22T20:39:51.715Z,1.85
2022-09-22T20:42:18.511Z,2.25
2022-09-22T20:44:49.071Z,2.13
2022-09-22T20:47:18.889Z,2.60
2022-09-22T20:49:49.450Z,2.50
2022-09-22T20:52:20.269Z,2.13
2022-09-22T20:54:47.852Z,1.90
2022-09-22T20:57:15.331Z,2.63
2022-09-22T20:59:45.663Z,3.60
2022-09-22T21:02:14.076Z,3.97
2022-09-22T21:04:41.301Z,3.50
2022-09-22T21:07:09.051Z,2.97
2022-09-22T21:09:54.892Z,2.50
2022-09-22T21:12:26.208Z,1.92
2022-09-22T21:14:56.222Z,2.47
2022-09-22T21:17:24.048Z,2.78
2022-09-22T21:19:50.903Z,2.97
2022-09-22T21:22:17.759Z,3.50
2022-09-22T21:24:47.046Z,3.20
2022-09-22T21:27:15.104Z,3.03
2022-09-22T21:29:42.284Z,2.78
2022-09-22T21:32:09.569Z,3.28
2022-09-22T21:34:36.675Z,2.90
2022-09-22T21:37:05.547Z,3.05
2022-09-22T21:39:32.784Z,3.13
2022-09-22T21:42:02.035Z,3.22
2022-09-22T21:44:29.281Z,2.85
2022-09-22T21:46:56.109Z,3.80
2022-09-22T21:49:24.299Z,3.58
2022-09-22T21:51:51.260Z,3.65
2022-09-22T21:54:18.709Z,2.97
2022-09-22T21:56:46.487Z,2.72
2022-09-22T21:59:14.309Z,2.45
2022-09-22T22:01:42.342Z,2.67
2022-09-22T22:04:13.688Z,2.83
2022-09-22T22:06:43.077Z,2.97
2022-09-22T22:09:23.052Z,2.92
2022-09-22T22:11:56.375Z,2.53
2022-09-22T22:14:26.130Z,2.55
2022-09-22T22:16:55.463Z,2.60
2022-09-22T22:19:25.810Z,3.13
2022-09-22T22:21:53.467Z,2.58
2022-09-22T22:24:25.556Z,2.78
2022-09-22T22:26:58.582Z,2.67
2022-09-22T22:29:27.107Z,2.35
2022-09-22T22:31:54.361Z,2.70
2022-09-22T22:34:25.563Z,2.88
2022-09-22T22:36:53.069Z,2.17
2022-09-22T22:39:21.101Z,2.45
2022-09-22T22:41:50.737Z,2.08
2022-09-22T22:44:18.951Z,1.95
2022-09-22T22:46:46.848Z,1.88
2022-09-22T22:49:14.028Z,1.80
2022-09-22T22:51:43.233Z,1.98
2022-09-22T22:54:11.419Z,1.75
2022-09-22T22:56:41.765Z,1.77
2022-09-22T22:59:10.211Z,1.63
2022-09-22T23:01:40.577Z,1.70
2022-09-22T23:04:10.665Z,1.90
2022-09-22T23:06:43.973Z,1.75
2022-09-22T23:09:14.947Z,1.83
2022-09-22T23:11:43.226Z,1.90
2022-09-22T23:14:11.884Z,1.92
2022-09-22T23:16:46.535Z,1.60
2022-09-22T23:19:16.963Z,1.98
2022-09-22T23:21:45.162Z,1.73
2022-09-22T23:24:16.604Z,2.85
2022-09-22T23:26:45.687Z,1.92
2022-09-22T23:29:12.967Z,1.48
2022-09-22T23:31:39.832Z,1.67
2022-09-22T23:34:06.860Z,1.42
2022-09-22T23:36:33.761Z,1.90
2022-09-22T23:39:05.137Z,1.35
2022-09-22T23:41:34.005Z,1.88
2022-09-22T23:44:03.465Z,1.50
2022-09-22T23:46:31.884Z,2.03
2022-09-22T23:49:00.181Z,1.70
2022-09-22T23:51:27.640Z,1.42
2022-09-22T23:53:55.535Z,1.40
2022-09-22T23:56:23.123Z,1.38
2022-09-22T23:58:51.750Z,1.52
